Time;durP1;ratioP1;P1;durP2;ratioP2;P2;SDS_P1;SDS_P2;PMS_P1;PMS_P2;Temp;Humidity;BMP_temperature;BMP_pressure;BME280_temperature;BME280_humidity;BME280_pressure;Samples;Min_cycle;Max_cycle;Signal;HPM_P1;HPM_P2
2022/08/28 00:02:07;;;;;;;;;;;;;;;25.87;43.09;99191.47;4989343;28;19961;-77
2022/08/28 00:04:33;;;;;;;;;;;;;;;25.89;42.88;99199.28;4988056;28;19996;-77
2022/08/28 00:06:58;;;;;;;;;;;;;;;25.87;42.93;99204.19;4989143;28;19967;-77
2022/08/28 00:09:24;;;;;;;;;;;;;;;25.80;43.00;99201.00;4988989;28;19917;-77
2022/08/28 00:11:49;;;;;;;;;;;;;;;25.75;43.11;99209.97;4989209;28;20375;-77
2022/08/28 00:14:17;;;;;;;;;;;;;;;25.77;42.97;99206.97;4989654;28;19963;-77
2022/08/28 00:16:43;;;;;;;;;;;;;;;25.82;43.39;99206.94;4989360;28;19913;-77
2022/08/28 00:19:09;;;;;;;;;;;;;;;25.83;42.82;99205.84;4989000;28;20342;-77
2022/08/28 00:21:36;;;;;;;;;;;;;;;25.81;42.76;99206.13;4987614;28;20411;-77
2022/08/28 00:24:01;;;;;;;;;;;;;;;25.78;43.13;99204.00;4992012;28;19929;-77
2022/08/28 00:29:10;;;;;;;;;;;;;;;25.79;42.75;99207.50;4992132;28;19971;-77
2022/08/28 00:31:38;;;;;;;;;;;;;;;25.77;42.76;99198.88;4992298;28;19918;-77
2022/08/28 00:34:04;;;;;;;;;;;;;;;25.70;42.77;99201.09;4990836;28;19914;-77
2022/08/28 00:36:29;;;;;;;;;;;;;;;25.60;42.99;99200.09;4992109;28;19917;-77
2022/08/28 00:38:55;;;;;;;;;;;;;;;25.54;43.15;99197.72;4991956;28;19913;-77
2022/08/28 00:41:21;;;;;;;;;;;;;;;25.48;43.84;99191.53;4992147;28;19914;-77
2022/08/28 00:43:48;;;;;;;;;;;;;;;25.49;43.45;99195.84;4992085;28;19971;-77
2022/08/28 00:46:16;;;;;;;;;;;;;;;25.44;43.31;99193.19;4992081;28;19918;-77
2022/08/28 00:48:41;;;;;;;;;;;;;;;25.36;43.61;99196.50;4992061;28;19996;-77
2022/08/28 00:53:53;;;;;;;;;;;;;;;25.30;43.52;99192.25;4992122;28;19921;-77
2022/08/28 00:56:18;;;;;;;;;;;;;;;25.29;43.44;99202.25;4991850;28;19914;-77
2022/08/28 00:58:45;;;;;;;;;;;;;;;25.22;43.59;99199.03;4991838;28;19920;-77
2022/08/28 01:01:11;;;;;;;;;;;;;;;25.16;43.39;99196.66;4992019;28;20370;-77
2022/08/28 01:03:37;;;;;;;;;;;;;;;25.09;43.78;99201.56;4991791;28;19953;-77
2022/08/28 01:06:03;;;;;;;;;;;;;;;25.05;43.66;99214.84;4991722;28;19960;-77
2022/08/28 01:08:30;;;;;;;;;;;;;;;25.01;43.83;99205.69;4991360;28;19941;-77
2022/08/28 01:10:56;;;;;;;;;;;;;;;25.02;43.54;99220.78;4990386;28;20398;-77
2022/08/28 01:13:23;;;;;;;;;;;;;;;25.06;43.63;99221.03;4990451;28;19914;-77
2022/08/28 01:15:48;;;;;;;;;;;;;;;25.09;43.66;99215.06;4991536;28;19970;-77
2022/08/28 01:18:14;;;;;;;;;;;;;;;25.11;43.82;99219.13;4991495;28;19918;-77
2022/08/28 01:20:52;;;;;;;;;;;;;;;25.14;43.72;99215.03;4991447;28;19918;-77
2022/08/28 01:23:31;;;;;;;;;;;;;;;25.12;43.58;99209.91;4990140;28;19920;-77
2022/08/28 01:25:56;;;;;;;;;;;;;;;25.06;43.61;99216.44;4991453;28;19963;-77
2022/08/28 01:28:22;;;;;;;;;;;;;;;25.02;43.93;99216.19;4991378;28;20454;-77
2022/08/28 01:30:48;;;;;;;;;;;;;;;24.97;44.11;99218.09;4991443;28;19921;-77
2022/08/28 01:33:14;;;;;;;;;;;;;;;24.94;43.86;99216.75;4990947;28;19906;-77
2022/08/28 01:35:41;;;;;;;;;;;;;;;24.89;44.26;99214.09;4991314;28;19910;-77
2022/08/28 01:38:07;;;;;;;;;;;;;;;24.86;43.89;99219.25;4991287;28;19913;-77
2022/08/28 01:40:36;;;;;;;;;;;;;;;24.77;44.27;99220.91;4990099;28;19925;-77
2022/08/28 01:43:06;;;;;;;;;;;;;;;24.69;44.30;99220.41;4991165;28;20314;-77
2022/08/28 01:45:31;;;;;;;;;;;;;;;24.66;43.87;99223.69;4991281;28;19944;-77
2022/08/28 01:47:57;;;;;;;;;;;;;;;24.62;44.60;99225.31;4991404;28;19918;-77
2022/08/28 01:50:22;;;;;;;;;;;;;;;24.64;44.77;99223.16;4990996;28;20372;-77
2022/08/28 01:52:47;;;;;;;;;;;;;;;24.65;44.73;99218.56;4990839;28;19921;-77
2022/08/28 01:55:13;;;;;;;;;;;;;;;24.64;44.66;99227.75;4990913;28;20361;-77
2022/08/28 01:57:45;;;;;;;;;;;;;;;24.58;44.50;99224.25;4989658;28;20279;-77
2022/08/28 02:00:11;;;;;;;;;;;;;;;24.54;44.30;99219.69;4990997;28;20360;-77
2022/08/28 02:02:36;;;;;;;;;;;;;;;24.47;44.90;99217.25;4991075;28;19920;-77
2022/08/28 02:05:01;;;;;;;;;;;;;;;24.47;44.64;99221.84;4989606;28;19957;-77
2022/08/28 02:07:26;;;;;;;;;;;;;;;24.44;45.09;99222.41;4990826;28;19913;-77
2022/08/28 02:09:52;;;;;;;;;;;;;;;24.37;45.00;99220.81;4990800;28;20301;-77
2022/08/28 02:12:17;;;;;;;;;;;;;;;24.36;44.68;99221.09;4990747;28;19914;-77
2022/08/28 02:14:42;;;;;;;;;;;;;;;24.31;45.44;99213.81;4990738;28;20055;-77
2022/08/28 02:17:07;;;;;;;;;;;;;;;24.30;45.11;99208.72;4990718;28;19914;-77
2022/08/28 02:19:33;;;;;;;;;;;;;;;24.28;45.03;99210.88;4990661;28;20084;-77
2022/08/28 02:21:58;;;;;;;;;;;;;;;24.24;45.08;99215.19;4990495;28;19914;-77
2022/08/28 02:24:23;;;;;;;;;;;;;;;24.19;45.34;99218.69;4990498;28;19912;-77
2022/08/28 02:26:49;;;;;;;;;;;;;;;24.16;45.76;99215.75;4990476;28;19918;-77
2022/08/28 02:29:14;;;;;;;;;;;;;;;24.17;45.33;99220.06;4989266;28;19906;-77
2022/08/28 02:31:39;;;;;;;;;;;;;;;24.14;45.12;99221.41;4990528;28;20310;-77
2022/08/28 02:34:05;;;;;;;;;;;;;;;24.09;45.43;99224.94;4989145;28;19985;-77
2022/08/28 02:36:30;;;;;;;;;;;;;;;24.05;45.16;99221.16;4990389;28;19914;-77
2022/08/28 02:38:56;;;;;;;;;;;;;;;24.02;45.60;99226.31;4990157;28;20321;-77
2022/08/28 02:41:22;;;;;;;;;;;;;;;24.04;45.72;99226.84;4988927;28;19957;-77
2022/08/28 02:43:47;;;;;;;;;;;;;;;24.05;45.75;99229.25;4990214;28;19918;-77
2022/08/28 02:46:12;;;;;;;;;;;;;;;24.07;45.06;99220.91;4989460;28;20000;-77
2022/08/28 02:48:39;;;;;;;;;;;;;;;24.06;45.77;99230.88;4990162;28;19964;-77
2022/08/28 02:51:06;;;;;;;;;;;;;;;24.07;46.01;99231.69;4990144;28;19921;-77
2022/08/28 02:53:31;;;;;;;;;;;;;;;24.10;45.88;99244.63;4990128;28;20378;-77
2022/08/28 02:55:57;;;;;;;;;;;;;;;24.09;45.59;99243.81;4990021;28;20016;-77
2022/08/28 02:58:22;;;;;;;;;;;;;;;24.07;46.46;99248.66;4989931;28;20563;-77
2022/08/28 03:00:48;;;;;;;;;;;;;;;24.06;45.55;99240.84;4989981;28;19918;-77
2022/08/28 03:03:14;;;;;;;;;;;;;;;24.07;45.63;99240.59;4990234;28;19961;-77
2022/08/28 03:05:39;;;;;;;;;;;;;;;24.06;45.81;99247.06;4990042;28;19914;-77
2022/08/28 03:08:04;;;;;;;;;;;;;;;24.05;45.87;99258.94;4989714;28;20417;-77
2022/08/28 03:10:30;;;;;;;;;;;;;;;24.00;45.75;99260.81;4990109;28;19914;-77
2022/08/28 03:12:55;;;;;;;;;;;;;;;23.99;45.92;99254.63;4989953;28;20382;-77
2022/08/28 03:15:20;;;;;;;;;;;;;;;23.99;45.73;99260.03;4990091;28;19921;-77
2022/08/28 03:17:46;;;;;;;;;;;;;;;23.98;46.18;99253.00;4989919;28;19971;-77
2022/08/28 03:20:12;;;;;;;;;;;;;;;23.98;45.58;99258.41;4989340;28;20038;-77
2022/08/28 03:25:38;;;;;;;;;;;;;;;23.88;45.98;99265.69;4968317;28;19915;-77
2022/08/28 03:28:04;;;;;;;;;;;;;;;23.85;46.62;99264.34;4985136;28;20310;-77
2022/08/28 03:30:29;;;;;;;;;;;;;;;23.86;45.59;99263.28;4989571;28;19989;-77
2022/08/28 03:32:54;;;;;;;;;;;;;;;23.86;46.22;99268.66;4989548;28;19914;-77
2022/08/28 03:35:20;;;;;;;;;;;;;;;23.81;46.16;99271.38;4989566;28;20375;-77
2022/08/28 03:37:46;;;;;;;;;;;;;;;23.78;46.36;99269.19;4989655;28;19914;-77
2022/08/28 03:40:11;;;;;;;;;;;;;;;23.79;46.51;99275.41;4989686;28;20318;-77
2022/08/28 03:42:36;;;;;;;;;;;;;;;23.79;46.04;99275.41;4989289;28;19921;-77
2022/08/28 03:45:02;;;;;;;;;;;;;;;23.82;46.29;99275.69;4988124;28;19921;-77
2022/08/28 03:47:28;;;;;;;;;;;;;;;23.87;46.52;99278.38;4989560;28;20001;-77
2022/08/28 03:49:54;;;;;;;;;;;;;;;23.90;46.05;99283.22;4989465;28;20400;-77
2022/08/28 03:52:19;;;;;;;;;;;;;;;23.88;46.47;99279.19;4987939;28;19970;-77
2022/08/28 03:54:44;;;;;;;;;;;;;;;23.88;45.68;99276.50;4989235;28;20004;-77
2022/08/28 03:57:10;;;;;;;;;;;;;;;23.91;45.63;99274.06;4991133;28;20302;-77
2022/08/28 03:59:35;;;;;;;;;;;;;;;23.92;46.40;99272.97;4992831;28;20008;-77
2022/08/28 04:02:00;;;;;;;;;;;;;;;23.90;46.52;99269.75;4992758;28;20000;-77
2022/08/28 04:04:26;;;;;;;;;;;;;;;23.90;45.48;99279.72;4992767;28;20321;-77
2022/08/28 04:06:51;;;;;;;;;;;;;;;23.80;46.11;99277.84;4992415;28;19914;-77
2022/08/28 04:09:17;;;;;;;;;;;;;;;23.74;46.28;99279.69;4992353;28;19913;-77
2022/08/28 04:11:42;;;;;;;;;;;;;;;23.73;46.54;99274.59;4991194;28;20449;-77
2022/08/28 04:14:08;;;;;;;;;;;;;;;23.71;46.33;99271.34;4992362;28;19906;-77
2022/08/28 04:16:34;;;;;;;;;;;;;;;23.71;46.29;99280.25;4991206;28;19914;-77
2022/08/28 04:18:59;;;;;;;;;;;;;;;23.74;46.82;99276.19;4992287;28;19926;-77
2022/08/28 04:21:27;;;;;;;;;;;;;;;23.70;46.67;99288.59;4992405;28;19922;-77
2022/08/28 04:23:53;;;;;;;;;;;;;;;23.61;46.40;99291.03;4992481;28;20382;-77
2022/08/28 04:26:20;;;;;;;;;;;;;;;23.52;47.05;99287.22;4992416;28;19971;-77
2022/08/28 04:28:46;;;;;;;;;;;;;;;23.48;46.70;99291.53;4992436;28;19914;-77
2022/08/28 04:31:11;;;;;;;;;;;;;;;23.52;47.33;99287.22;4992275;28;19982;-77
2022/08/28 04:33:37;;;;;;;;;;;;;;;23.43;47.05;99286.94;4992052;28;19914;-77
2022/08/28 04:36:04;;;;;;;;;;;;;;;23.48;47.09;99296.13;4992088;28;20450;-77
2022/08/28 04:38:29;;;;;;;;;;;;;;;23.50;46.95;99294.75;4992427;28;19914;-77
2022/08/28 04:40:54;;;;;;;;;;;;;;;23.54;46.73;99295.84;4992168;28;20311;-77
2022/08/28 04:43:20;;;;;;;;;;;;;;;23.53;46.77;99288.84;4991962;28;19921;-76
2022/08/28 04:45:45;;;;;;;;;;;;;;;23.53;47.31;99296.13;4992235;28;19963;-76
2022/08/28 04:48:13;;;;;;;;;;;;;;;23.57;46.37;99289.13;4991956;28;19921;-77
2022/08/28 04:50:43;;;;;;;;;;;;;;;23.57;47.04;99297.22;4991904;28;19921;-77
2022/08/28 04:53:09;;;;;;;;;;;;;;;23.57;47.09;99295.34;4991745;28;19914;-77
2022/08/28 04:55:38;;;;;;;;;;;;;;;23.57;46.65;99294.53;4991779;28;19959;-76
2022/08/28 04:58:03;;;;;;;;;;;;;;;23.54;47.20;99295.03;4991889;28;19914;-76
2022/08/28 05:00:29;;;;;;;;;;;;;;;23.54;47.09;99289.66;4991734;28;19933;-76
2022/08/28 05:02:54;;;;;;;;;;;;;;;23.58;47.07;99286.19;4991725;28;20386;-76
2022/08/28 05:05:19;;;;;;;;;;;;;;;23.62;47.37;99291.84;4990351;28;19914;-77
2022/08/28 05:07:44;;;;;;;;;;;;;;;23.71;46.68;99288.34;4991172;28;19967;-76
2022/08/28 05:10:10;;;;;;;;;;;;;;;23.77;46.89;99287.25;4991340;28;19928;-77
2022/08/28 05:12:35;;;;;;;;;;;;;;;23.85;46.52;99288.63;4991650;28;19914;-77
2022/08/28 05:15:00;;;;;;;;;;;;;;;23.91;46.19;99290.22;4991762;28;19918;-77
2022/08/28 05:17:26;;;;;;;;;;;;;;;23.99;46.23;99296.97;4990358;28;19914;-77
2022/08/28 05:19:53;;;;;;;;;;;;;;;24.03;45.92;99298.84;4990033;28;19922;-77
2022/08/28 05:22:18;;;;;;;;;;;;;;;24.06;46.16;99303.69;4991394;28;20322;-77
2022/08/28 05:24:43;;;;;;;;;;;;;;;24.09;46.04;99308.56;4991426;28;19914;-77
2022/08/28 05:27:09;;;;;;;;;;;;;;;24.12;46.05;99307.19;4990057;28;20394;-77
2022/08/28 05:29:34;;;;;;;;;;;;;;;24.20;46.25;99309.34;4991281;28;20430;-77
2022/08/28 05:31:59;;;;;;;;;;;;;;;24.26;45.97;99308.25;4991319;28;19914;-77
2022/08/28 05:34:24;;;;;;;;;;;;;;;24.37;45.93;99311.75;4991358;28;20360;-77
2022/08/28 05:36:50;;;;;;;;;;;;;;;24.49;45.89;99316.84;4991189;28;19953;-77
2022/08/28 05:39:15;;;;;;;;;;;;;;;24.53;45.31;99313.34;4991263;28;19917;-77
2022/08/28 05:41:42;;;;;;;;;;;;;;;24.61;45.54;99322.78;4991368;28;19914;-77
2022/08/28 05:44:09;;;;;;;;;;;;;;;24.65;45.00;99310.34;4991049;28;20390;-77
2022/08/28 05:46:36;;;;;;;;;;;;;;;24.70;45.16;99315.72;4991198;28;19921;-77
2022/08/28 05:49:02;;;;;;;;;;;;;;;24.78;45.15;99317.84;4991148;28;19913;-77
2022/08/28 05:51:27;;;;;;;;;;;;;;;24.88;45.09;99331.31;4991131;28;20378;-77
2022/08/28 05:53:53;;;;;;;;;;;;;;;24.96;44.79;99319.94;4989838;28;19921;-77
2022/08/28 05:56:20;;;;;;;;;;;;;;;25.06;44.83;99321.00;4991118;28;19914;-77
2022/08/28 05:58:46;;;;;;;;;;;;;;;25.14;44.98;99328.50;4991056;28;19914;-77
2022/08/28 06:01:16;;;;;;;;;;;;;;;25.20;44.98;99325.50;4990900;28;20405;-77
2022/08/28 06:03:43;;;;;;;;;;;;;;;25.26;44.66;99324.38;4991092;28;19914;-77
2022/08/28 06:06:10;;;;;;;;;;;;;;;25.33;44.93;99326.81;4991047;28;19914;-77
2022/08/28 06:08:36;;;;;;;;;;;;;;;25.39;44.52;99325.69;4990839;28;20317;-77
2022/08/28 06:11:02;;;;;;;;;;;;;;;25.43;44.73;99320.53;4989665;28;19913;-77
2022/08/28 06:13:28;;;;;;;;;;;;;;;25.51;44.56;99325.34;4991033;28;19914;-77
2022/08/28 06:15:54;;;;;;;;;;;;;;;25.56;44.34;99312.59;4989717;28;19956;-77
2022/08/28 06:18:19;;;;;;;;;;;;;;;25.62;44.33;99327.69;4989603;28;20002;-77
2022/08/28 06:20:45;;;;;;;;;;;;;;;25.65;44.25;99320.91;4988227;28;19917;-77
2022/08/28 06:23:12;;;;;;;;;;;;;;;25.73;44.00;99323.03;4990518;28;19920;-77
2022/08/28 06:25:38;;;;;;;;;;;;;;;25.79;43.68;99330.00;4990594;28;19936;-77
2022/08/28 06:28:04;;;;;;;;;;;;;;;25.85;43.62;99328.06;4990689;28;20287;-77
2022/08/28 06:30:30;;;;;;;;;;;;;;;25.90;43.68;99334.25;4990575;28;20337;-77
2022/08/28 06:32:55;;;;;;;;;;;;;;;25.93;43.22;99333.69;4988998;28;19913;-77
2022/08/28 06:35:20;;;;;;;;;;;;;;;26.01;43.52;99332.28;4989039;28;19961;-77
2022/08/28 06:37:46;;;;;;;;;;;;;;;26.05;43.15;99335.22;4990299;28;19920;-77
2022/08/28 06:40:12;;;;;;;;;;;;;;;26.13;42.72;99335.44;4990317;28;19969;-77
2022/08/28 06:42:37;;;;;;;;;;;;;;;26.19;42.60;99334.28;4990320;28;19913;-77
2022/08/28 06:45:03;;;;;;;;;;;;;;;26.27;42.65;99336.38;4990252;28;19921;-77
2022/08/28 06:47:28;;;;;;;;;;;;;;;26.35;42.30;99329.56;4990150;28;19967;-77
2022/08/28 06:49:53;;;;;;;;;;;;;;;26.46;42.17;99324.84;4988858;28;19966;-76
2022/08/28 06:52:19;;;;;;;;;;;;;;;26.55;41.80;99323.09;4990133;28;19917;-77
2022/08/28 06:54:44;;;;;;;;;;;;;;;26.64;41.31;99329.50;4990156;28;20003;-77
2022/08/28 06:57:09;;;;;;;;;;;;;;;26.72;41.56;99330.75;4989957;28;19913;-77
2022/08/28 06:59:35;;;;;;;;;;;;;;;26.81;41.31;99326.34;4989750;28;19922;-77
2022/08/28 07:02:01;;;;;;;;;;;;;;;26.91;41.38;99323.50;4989924;28;19914;-77
2022/08/28 07:04:26;;;;;;;;;;;;;;;26.98;41.17;99324.00;4989870;28;20360;-77
2022/08/28 07:06:52;;;;;;;;;;;;;;;27.10;41.19;99327.06;4989896;28;19914;-77
2022/08/28 07:09:17;;;;;;;;;;;;;;;27.20;40.93;99321.50;4989807;28;20310;-77
2022/08/28 07:11:45;;;;;;;;;;;;;;;27.28;40.94;99322.75;4989801;28;19913;-77
2022/08/28 07:14:10;;;;;;;;;;;;;;;27.35;40.81;99323.19;4989533;28;19914;-77
2022/08/28 07:16:37;;;;;;;;;;;;;;;27.42;40.69;99325.53;4988566;28;20391;-77
2022/08/28 07:19:03;;;;;;;;;;;;;;;27.49;40.80;99326.78;4989607;28;20024;-77
2022/08/28 07:21:30;;;;;;;;;;;;;;;27.58;40.38;99323.44;4988315;28;20023;-77
2022/08/28 07:23:55;;;;;;;;;;;;;;;27.65;40.33;99321.19;4989792;28;19914;-77
2022/08/28 07:26:22;;;;;;;;;;;;;;;27.71;40.44;99326.22;4989637;28;20382;-77
2022/08/28 07:28:48;;;;;;;;;;;;;;;27.74;40.01;99331.06;4989607;28;20314;-77
2022/08/28 07:31:16;;;;;;;;;;;;;;;27.79;40.22;99327.44;4988002;28;19914;-77
2022/08/28 07:33:42;;;;;;;;;;;;;;;27.81;40.09;99323.34;4989509;28;19988;-77
2022/08/28 07:36:12;;;;;;;;;;;;;;;27.83;39.83;99323.84;4989625;28;19918;-77
2022/08/28 07:38:37;;;;;;;;;;;;;;;27.90;39.46;99319.94;4989776;28;19914;-77
2022/08/28 07:41:10;;;;;;;;;;;;;;;27.96;39.20;99316.03;4989532;28;19917;-77
2022/08/28 07:46:20;;;;;;;;;;;;;;;28.07;39.60;99317.47;4989904;28;19921;-77
2022/08/28 07:48:46;;;;;;;;;;;;;;;28.11;38.91;99313.06;4989779;28;19914;-77
2022/08/28 07:51:12;;;;;;;;;;;;;;;28.18;38.41;99313.47;4988221;28;20404;-77
2022/08/28 07:53:37;;;;;;;;;;;;;;;28.26;37.77;99320.19;4989476;28;19914;-77
2022/08/28 07:56:03;;;;;;;;;;;;;;;28.33;38.73;99307.00;4988072;28;19914;-77
2022/08/28 07:58:28;;;;;;;;;;;;;;;28.39;38.67;99308.53;4988007;28;19917;-77
2022/08/28 08:00:54;;;;;;;;;;;;;;;28.50;38.48;99312.66;4989219;28;19925;-77
2022/08/28 08:03:20;;;;;;;;;;;;;;;28.59;38.71;99313.56;4988046;28;19925;-77
2022/08/28 08:05:52;;;;;;;;;;;;;;;28.71;38.55;99315.75;4989707;28;20055;-77
2022/08/28 08:08:17;;;;;;;;;;;;;;;28.83;37.84;99315.25;4989098;28;20981;-77
2022/08/28 08:10:42;;;;;;;;;;;;;;;28.92;38.11;99316.97;4989073;28;19936;-77
2022/08/28 08:13:08;;;;;;;;;;;;;;;29.03;38.19;99321.13;4988977;28;19965;-77
2022/08/28 08:15:33;;;;;;;;;;;;;;;29.10;36.96;99313.34;4987705;28;19913;-77
2022/08/28 08:17:58;;;;;;;;;;;;;;;29.14;37.23;99318.97;4989050;28;19968;-77
2022/08/28 08:20:24;;;;;;;;;;;;;;;29.21;36.46;99321.28;4988753;28;19922;-77
2022/08/28 08:22:49;;;;;;;;;;;;;;;29.29;37.31;99315.91;4988979;28;19918;-77
2022/08/28 08:25:15;;;;;;;;;;;;;;;29.40;37.49;99319.19;4988914;28;19917;-77
2022/08/28 08:27:40;;;;;;;;;;;;;;;29.51;37.32;99322.50;4988910;28;19913;-77
2022/08/28 08:30:05;;;;;;;;;;;;;;;29.63;35.86;99317.31;4988776;28;19914;-77
2022/08/28 08:32:31;;;;;;;;;;;;;;;29.67;36.39;99323.75;4987504;28;19914;-77
2022/08/28 08:34:56;;;;;;;;;;;;;;;29.80;36.28;99313.94;4988902;28;19914;-77
2022/08/28 08:37:21;;;;;;;;;;;;;;;29.96;35.82;99317.88;4988685;28;19920;-77
2022/08/28 08:39:46;;;;;;;;;;;;;;;30.10;35.79;99307.75;4988635;28;19918;-77
2022/08/28 08:42:18;;;;;;;;;;;;;;;30.24;35.84;99318.53;4988806;28;19982;-77
2022/08/28 08:44:45;;;;;;;;;;;;;;;30.36;35.00;99321.47;4991242;28;19922;-77
2022/08/28 08:47:18;;;;;;;;;;;;;;;30.44;35.67;99303.56;4992046;28;19914;-77
2022/08/28 08:50:09;;;;;;;;;;;;;;;30.63;35.48;99309.63;4990749;28;20348;-77
2022/08/28 08:52:36;;;;;;;;;;;;;;;30.83;35.17;99311.75;4989680;28;19967;-77
2022/08/28 08:55:08;;;;;;;;;;;;;;;30.95;34.84;99309.22;4991584;28;19953;-77
2022/08/28 08:57:35;;;;;;;;;;;;;;;31.17;34.75;99304.78;4990513;28;19921;-77
2022/08/28 09:00:02;;;;;;;;;;;;;;;31.36;33.97;99310.75;4991637;28;19925;-77
2022/08/28 09:02:31;;;;;;;;;;;;;;;31.54;34.27;99306.06;4991698;28;19914;-77
2022/08/28 09:05:00;;;;;;;;;;;;;;;31.73;34.00;99303.84;4991688;28;19937;-77
2022/08/28 09:07:38;;;;;;;;;;;;;;;31.90;33.11;99301.06;4991477;28;19913;-77
2022/08/28 09:10:04;;;;;;;;;;;;;;;32.03;33.44;99296.56;4991493;28;20418;-77
2022/08/28 09:12:33;;;;;;;;;;;;;;;32.27;33.59;99301.50;4990342;28;19918;-78
2022/08/28 09:15:08;;;;;;;;;;;;;;;32.41;33.11;99295.81;4990400;28;19975;-77
2022/08/28 09:17:43;;;;;;;;;;;;;;;32.62;33.05;99288.44;4991492;28;19922;-77
2022/08/28 09:20:10;;;;;;;;;;;;;;;32.75;32.30;99292.91;4989898;28;20418;-77
2022/08/28 09:22:36;;;;;;;;;;;;;;;32.87;32.17;99294.16;4991305;28;19913;-78
2022/08/28 09:25:02;;;;;;;;;;;;;;;33.03;31.65;99284.22;4991454;28;20012;-78
2022/08/28 09:27:31;;;;;;;;;;;;;;;33.15;32.61;99295.25;4991414;28;20391;-78
2022/08/28 09:29:58;;;;;;;;;;;;;;;33.22;30.80;99281.81;4991455;28;19921;-77
2022/08/28 09:32:26;;;;;;;;;;;;;;;33.35;31.14;99280.78;4991157;28;20339;-77
2022/08/28 09:35:03;;;;;;;;;;;;;;;33.53;30.27;99286.91;4991104;28;19956;-78
2022/08/28 09:37:31;;;;;;;;;;;;;;;33.75;31.11;99283.00;4989773;28;19914;-77
2022/08/28 09:40:14;;;;;;;;;;;;;;;33.99;29.67;99282.28;4991005;28;19914;-77
2022/08/28 09:45:39;;;;;;;;;;;;;;;34.33;29.32;99283.84;4991284;28;19921;-77
2022/08/28 09:48:16;;;;;;;;;;;;;;;34.47;29.86;99278.03;4991208;28;19914;-77
2022/08/28 09:50:53;;;;;;;;;;;;;;;34.64;29.33;99280.53;4991278;28;20424;-77
2022/08/28 09:53:20;;;;;;;;;;;;;;;34.65;29.81;99282.13;4990878;28;19925;-78
2022/08/28 09:55:50;;;;;;;;;;;;;;;34.68;28.53;99279.50;4990031;28;19965;-78
2022/08/28 09:58:15;;;;;;;;;;;;;;;34.84;29.53;99267.84;4990978;28;19924;-78
2022/08/28 10:00:46;;;;;;;;;;;;;;;34.96;28.26;99276.06;4990928;28;19997;-77
2022/08/28 10:03:19;;;;;;;;;;;;;;;35.09;27.99;99263.94;4989610;28;19913;-77
2022/08/28 10:06:07;;;;;;;;;;;;;;;35.14;27.24;99269.16;4990850;28;19918;-77
2022/08/28 10:08:53;;;;;;;;;;;;;;;35.28;29.99;99266.81;4990797;28;20401;-77
2022/08/28 10:11:27;;;;;;;;;;;;;;;35.45;28.12;99259.47;4984254;28;19920;-77
2022/08/28 10:14:15;;;;;;;;;;;;;;;35.66;28.83;99265.53;4990619;28;20390;-77
2022/08/28 10:16:44;;;;;;;;;;;;;;;35.90;28.01;99253.66;4990337;28;19943;-77
2022/08/28 10:19:35;;;;;;;;;;;;;;;36.10;27.79;99251.81;4989106;28;20439;-77
2022/08/28 10:22:19;;;;;;;;;;;;;;;36.27;27.19;99246.72;4988372;28;20004;-77
2022/08/28 10:24:44;;;;;;;;;;;;;;;36.42;28.55;99256.19;4990712;28;20000;-77
2022/08/28 10:27:09;;;;;;;;;;;;;;;36.58;26.99;99245.94;4990525;28;20358;-77
2022/08/28 10:30:03;;;;;;;;;;;;;;;36.69;23.96;99250.88;4989103;28;20000;-77
2022/08/28 10:32:47;;;;;;;;;;;;;;;36.79;25.11;99242.09;4990519;28;19914;-77
2022/08/28 10:35:24;;;;;;;;;;;;;;;36.84;26.01;99234.34;4990651;28;19914;-77
2022/08/28 10:38:04;;;;;;;;;;;;;;;36.95;24.05;99237.31;4990737;28;19931;-77
2022/08/28 10:40:34;;;;;;;;;;;;;;;36.92;25.17;99238.84;4989092;28;19926;-77
2022/08/28 10:43:05;;;;;;;;;;;;;;;37.09;24.27;99236.81;4990276;28;20411;-77
2022/08/28 10:45:31;;;;;;;;;;;;;;;37.34;24.77;99240.13;4990388;28;20394;-77
2022/08/28 10:47:59;;;;;;;;;;;;;;;37.45;25.01;99232.88;4988845;28;19921;-77
2022/08/28 10:50:28;;;;;;;;;;;;;;;37.67;23.28;99234.84;4990072;28;19918;-77
2022/08/28 10:53:17;;;;;;;;;;;;;;;37.81;23.78;99232.38;4990429;28;19920;-78
2022/08/28 10:55:49;;;;;;;;;;;;;;;38.02;24.95;99226.44;4984873;28;19914;-77
2022/08/28 10:58:15;;;;;;;;;;;;;;;38.05;25.91;99220.19;4990039;28;19921;-77
2022/08/28 11:00:42;;;;;;;;;;;;;;;38.02;25.53;99225.66;4989968;28;19918;-78
2022/08/28 11:03:12;;;;;;;;;;;;;;;37.89;21.07;99219.50;4989880;28;19914;-77
2022/08/28 11:06:02;;;;;;;;;;;;;;;37.93;24.47;99228.66;4988256;28;20377;-78
2022/08/28 11:08:32;;;;;;;;;;;;;;;38.03;24.07;99218.97;4984591;28;19914;-78
2022/08/28 11:10:59;;;;;;;;;;;;;;;38.12;23.11;99217.56;4989936;28;20025;-78
2022/08/28 11:13:37;;;;;;;;;;;;;;;38.22;21.52;99216.16;4988741;28;20378;-78
2022/08/28 11:16:09;;;;;;;;;;;;;;;38.32;23.57;99223.81;4989892;28;19957;-77
2022/08/28 11:18:55;;;;;;;;;;;;;;;38.41;22.25;99220.78;4989849;28;19929;-77
2022/08/28 11:21:47;;;;;;;;;;;;;;;38.60;22.04;99219.84;4988322;28;19925;-77
2022/08/28 11:24:40;;;;;;;;;;;;;;;38.68;22.53;99216.09;4987343;28;20394;-77
2022/08/28 11:27:05;;;;;;;;;;;;;;;38.74;20.55;99212.63;4989646;28;19929;-77
2022/08/28 11:29:49;;;;;;;;;;;;;;;38.77;20.67;99205.56;4990100;28;20328;-77
2022/08/28 11:32:47;;;;;;;;;;;;;;;38.81;21.50;99205.59;4988354;28;20453;-77
2022/08/28 11:35:30;;;;;;;;;;;;;;;38.86;21.39;99200.56;4967383;28;20002;-77
2022/08/28 11:37:57;;;;;;;;;;;;;;;38.98;22.73;99205.03;4989671;28;19914;-77
2022/08/28 11:40:22;;;;;;;;;;;;;;;39.07;23.17;99197.28;4989594;28;19925;-77
2022/08/28 11:42:47;;;;;;;;;;;;;;;39.18;20.95;99200.16;4989432;28;19914;-77
2022/08/28 11:45:39;;;;;;;;;;;;;;;39.28;22.56;99189.22;4989459;28;20000;-77
2022/08/28 11:48:04;;;;;;;;;;;;;;;39.38;23.23;99193.28;4973979;28;19945;-78
2022/08/28 11:50:30;;;;;;;;;;;;;;;39.37;20.42;99191.69;4988195;28;20018;-78
2022/08/28 11:52:58;;;;;;;;;;;;;;;39.36;23.05;99190.88;4989315;28;19917;-78
2022/08/28 11:55:28;;;;;;;;;;;;;;;39.36;21.40;99190.88;4987976;28;20379;-77
2022/08/28 11:57:59;;;;;;;;;;;;;;;39.34;20.87;99184.16;4989259;28;20004;-77
2022/08/28 12:00:51;;;;;;;;;;;;;;;39.44;18.67;99182.69;4989389;28;19983;-77
2022/08/28 12:03:34;;;;;;;;;;;;;;;39.31;19.39;99182.94;4974063;28;19918;-77
2022/08/28 12:05:59;;;;;;;;;;;;;;;39.43;19.89;99176.38;4989345;28;20398;-77
2022/08/28 12:08:43;;;;;;;;;;;;;;;39.47;20.53;99184.69;4989094;28;19914;-77
2022/08/28 12:11:08;;;;;;;;;;;;;;;39.35;20.85;99180.22;4989242;28;20025;-77
2022/08/28 12:13:47;;;;;;;;;;;;;;;39.29;21.10;99178.97;4989214;28;20461;-77
2022/08/28 12:16:13;;;;;;;;;;;;;;;39.31;18.95;99177.41;4987952;28;19914;-77
2022/08/28 12:18:39;;;;;;;;;;;;;;;39.32;19.11;99178.22;4990012;28;20448;-77
2022/08/28 12:21:06;;;;;;;;;;;;;;;39.32;21.78;99172.69;4991461;28;20000;-77
2022/08/28 12:23:33;;;;;;;;;;;;;;;39.32;21.30;99167.16;4992519;28;19921;-78
2022/08/28 12:26:01;;;;;;;;;;;;;;;39.29;18.58;99156.88;4992443;28;19910;-78
2022/08/28 12:28:56;;;;;;;;;;;;;;;39.22;21.95;99165.88;4992390;28;20012;-78
2022/08/28 12:34:48;;;;;;;;;;;;;;;38.33;20.52;99159.19;4992142;28;20297;-78
2022/08/28 12:37:32;;;;;;;;;;;;;;;38.26;22.27;99156.34;4987095;28;19914;-78
2022/08/28 12:40:02;;;;;;;;;;;;;;;38.43;21.23;99152.25;4991945;28;19925;-78
2022/08/28 12:42:32;;;;;;;;;;;;;;;38.56;20.54;99150.03;4992135;28;19914;-77
2022/08/28 12:45:08;;;;;;;;;;;;;;;38.72;21.91;99147.94;4992243;28;19921;-77
2022/08/28 12:47:34;;;;;;;;;;;;;;;38.67;21.59;99148.28;4992115;28;19906;-77
2022/08/28 12:50:18;;;;;;;;;;;;;;;38.34;22.54;99152.50;4991918;28;19945;-77
2022/08/28 12:52:47;;;;;;;;;;;;;;;38.39;22.64;99146.69;4991864;28;19914;-77
2022/08/28 12:55:13;;;;;;;;;;;;;;;38.56;22.23;99148.06;4991902;28;20370;-77
2022/08/28 12:57:42;;;;;;;;;;;;;;;38.53;21.09;99142.50;4991823;28;19914;-77
2022/08/28 13:00:08;;;;;;;;;;;;;;;38.23;22.54;99146.06;4990434;28;19918;-77
2022/08/28 13:02:33;;;;;;;;;;;;;;;38.05;23.19;99150.47;4991700;28;19914;-77
2022/08/28 13:05:03;;;;;;;;;;;;;;;37.74;22.22;99144.06;4991842;28;20477;-77
2022/08/28 13:07:29;;;;;;;;;;;;;;;37.52;22.32;99142.09;4991687;28;19914;-77
2022/08/28 13:09:55;;;;;;;;;;;;;;;37.69;22.23;99143.56;4991911;28;20309;-77
2022/08/28 13:12:30;;;;;;;;;;;;;;;37.95;21.93;99140.09;4990483;28;20302;-77